Time;durP1;ratioP1;P1;durP2;ratioP2;P2;SDS_P1;SDS_P2;PMS_P1;PMS_P2;Temp;Humidity;BMP_temperature;BMP_pressure;BME280_temperature;BME280_humidity;BME280_pressure;Samples;Min_cycle;Max_cycle;Signal;HPM_P1;HPM_P2
2023/07/12 00:01:27;;;;;;;3.38;3.08;;;23.40;1.00;;;;;;5076527;28;20233;-82
2023/07/12 00:03:53;;;;;;;5.13;3.30;;;23.40;1.00;;;;;;5078107;28;20192;-82
2023/07/12 00:06:26;;;;;;;3.58;3.20;;;23.30;1.00;;;;;;5078210;28;20173;-82
2023/07/12 00:08:51;;;;;;;3.97;3.17;;;23.30;90.40;;;;;;5069087;28;20194;-81
2023/07/12 00:11:23;;;;;;;4.25;3.20;;;23.30;99.90;;;;;;5057842;28;20181;-81
2023/07/12 00:13:50;;;;;;;3.50;3.10;;;23.30;30.50;;;;;;5056853;28;20205;-81
2023/07/12 00:16:18;;;;;;;3.40;3.10;;;23.30;99.90;;;;;;5056754;28;20247;-82
2023/07/12 00:18:44;;;;;;;3.30;2.83;;;23.30;99.90;;;;;;5056719;28;20189;-81
2023/07/12 00:21:12;;;;;;;3.75;2.90;;;23.20;99.90;;;;;;5056835;28;20216;-83
2023/07/12 00:23:38;;;;;;;3.65;2.78;;;23.20;99.90;;;;;;5055780;28;20178;-82
2023/07/12 00:26:34;;;;;;;3.85;2.55;;;23.20;99.90;;;;;;5057944;28;20178;-82
2023/07/12 00:29:02;;;;;;;4.20;2.78;;;23.20;99.90;;;;;;5056558;28;20235;-81
2023/07/12 00:31:28;;;;;;;4.72;2.70;;;23.10;99.90;;;;;;5055622;28;20174;-82
2023/07/12 00:33:53;;;;;;;3.97;2.50;;;23.20;13.10;;;;;;5057456;28;20202;-82
2023/07/12 00:36:25;;;;;;;4.60;2.67;;;23.20;1.00;;;;;;5056044;28;20214;-81
2023/07/12 00:38:52;;;;;;;3.00;2.38;;;23.30;1.00;;;;;;5057515;28;20198;-82
2023/07/12 00:41:46;;;;;;;3.10;2.70;;;23.30;1.00;;;;;;5057010;28;20170;-81
2023/07/12 00:44:18;;;;;;;2.88;2.67;;;23.20;1.00;;;;;;5057888;28;20630;-82
2023/07/12 00:46:53;;;;;;;3.50;2.60;;;23.10;1.00;;;;;;5056387;28;20166;-82
2023/07/12 00:49:19;;;;;;;2.50;2.20;;;23.10;1.00;;;;;;5055725;28;20200;-81
2023/07/12 00:52:16;;;;;;;2.40;2.10;;;23.10;99.90;;;;;;5055438;28;20256;-82
2023/07/12 00:54:59;;;;;;;2.35;2.10;;;23.10;1.00;;;;;;5055322;28;20201;-81
2023/07/12 00:57:27;;;;;;;2.70;1.90;;;23.00;1.00;;;;;;5055781;28;20181;-80
2023/07/12 00:59:55;;;;;;;2.38;1.90;;;22.90;1.00;;;;;;5055331;28;20217;-82
2023/07/12 01:02:24;;;;;;;2.30;1.90;;;22.90;1.00;;;;;;5056003;28;20181;-82
2023/07/12 01:04:52;;;;;;;3.35;2.00;;;22.90;1.00;;;;;;5055544;28;20752;-82
2023/07/12 01:07:20;;;;;;;2.67;2.00;;;22.80;1.00;;;;;;5056933;28;20633;-82
2023/07/12 01:09:46;;;;;;;2.90;2.20;;;22.70;99.90;;;;;;5056766;28;20276;-81
2023/07/12 01:12:13;;;;;;;3.90;2.05;;;22.70;1.00;;;;;;5057278;28;20280;-82
2023/07/12 01:14:41;;;;;;;2.92;2.00;;;22.50;1.00;;;;;;5055763;28;20307;-81
2023/07/12 01:17:07;;;;;;;2.20;1.98;;;22.50;1.00;;;;;;5056861;28;20177;-81
2023/07/12 01:19:37;;;;;;;2.53;2.05;;;22.50;1.00;;;;;;5055534;28;20205;-82
2023/07/12 01:22:03;;;;;;;2.35;1.90;;;22.50;1.00;;;;;;5057255;28;20170;-82
2023/07/12 01:24:33;;;;;;;2.88;2.00;;;22.40;20.40;;;;;;5054851;28;20197;-81
2023/07/12 01:27:20;;;;;;;3.03;1.92;;;22.40;99.90;;;;;;5055288;28;20259;-81
2023/07/12 01:29:46;;;;;;;2.17;1.80;;;22.40;99.90;;;;;;5055050;28;20239;-82
2023/07/12 01:32:12;;;;;;;2.10;1.90;;;22.30;99.90;;;;;;5056753;28;20170;-81
2023/07/12 01:34:38;;;;;;;2.33;1.98;;;22.30;99.90;;;;;;5055264;28;20198;-82
2023/07/12 01:37:05;;;;;;;2.70;2.20;;;22.30;1.00;;;;;;5056823;28;20745;-81
2023/07/12 01:39:34;;;;;;;2.15;1.95;;;22.30;99.90;;;;;;5054738;28;20189;-81
2023/07/12 01:42:00;;;;;;;5.90;2.10;;;22.30;1.00;;;;;;5054806;28;20251;-81
2023/07/12 01:44:25;;;;;;;2.03;1.83;;;22.40;99.90;;;;;;5056291;28;20268;-82
2023/07/12 01:46:51;;;;;;;2.47;2.08;;;22.40;99.90;;;;;;5054776;28;20264;-82
2023/07/12 01:49:16;;;;;;;3.25;2.20;;;22.50;83.80;;;;;;5056132;28;20189;-81
2023/07/12 01:51:42;;;;;;;1.85;1.73;;;22.40;87.50;;;;;;5054602;28;20212;-82
2023/07/12 01:54:08;;;;;;;2.95;2.10;;;22.30;1.00;;;;;;5054243;28;20232;-81
2023/07/12 01:56:33;;;;;;;3.15;1.98;;;22.30;1.00;;;;;;5054871;28;20174;-82
2023/07/12 01:58:59;;;;;;;2.85;2.00;;;22.20;99.90;;;;;;5053994;28;20274;-82
2023/07/12 02:01:24;;;;;;;3.00;1.92;;;22.30;99.90;;;;;;5055165;28;20739;-81
2023/07/12 02:03:50;;;;;;;2.78;1.90;;;22.30;99.90;;;;;;5054456;28;20178;-82
2023/07/12 02:06:16;;;;;;;2.40;2.13;;;22.30;1.00;;;;;;5054080;28;20178;-82
2023/07/12 02:08:42;;;;;;;3.00;2.05;;;22.20;99.90;;;;;;5055370;28;20190;-82
2023/07/12 02:11:08;;;;;;;2.50;1.90;;;22.20;14.60;;;;;;5054571;28;20256;-82
2023/07/12 02:13:33;;;;;;;3.33;2.05;;;22.10;99.90;;;;;;5053990;28;20221;-81
2023/07/12 02:15:59;;;;;;;2.25;2.05;;;22.00;99.90;;;;;;5055689;28;20177;-81
2023/07/12 02:18:24;;;;;;;2.30;2.10;;;22.00;99.90;;;;;;5053697;28;20712;-81
2023/07/12 02:20:51;;;;;;;2.85;2.05;;;21.90;1.00;;;;;;5055562;28;20192;-81
2023/07/12 02:23:16;;;;;;;2.13;1.92;;;21.70;1.00;;;;;;5055388;28;20174;-82
2023/07/12 02:25:42;;;;;;;2.78;2.30;;;21.70;1.00;;;;;;5052702;28;20199;-81
2023/07/12 02:28:07;;;;;;;2.10;1.90;;;21.70;1.00;;;;;;5054446;28;20197;-81
2023/07/12 02:30:33;;;;;;;2.38;1.98;;;21.70;1.00;;;;;;5054922;28;20169;-81
2023/07/12 02:32:59;;;;;;;2.30;2.05;;;21.70;1.00;;;;;;5054147;28;20526;-81
2023/07/12 02:35:27;;;;;;;2.58;1.95;;;21.70;1.00;;;;;;5054383;28;20238;-81
2023/07/12 02:37:56;;;;;;;2.85;1.90;;;21.70;1.00;;;;;;5055586;28;20199;-81
2023/07/12 02:40:24;;;;;;;2.00;1.80;;;21.70;1.00;;;;;;5053510;28;20176;-81
2023/07/12 02:42:49;;;;;;;2.38;1.80;;;21.80;99.90;;;;;;5040139;28;20182;-81
2023/07/12 02:45:15;;;;;;;2.88;2.20;;;21.80;1.00;;;;;;5035727;28;20253;-81
2023/07/12 02:47:40;;;;;;;2.42;2.08;;;21.80;99.90;;;;;;5035884;28;20254;-81
2023/07/12 02:50:06;;;;;;;2.75;2.10;;;21.80;1.00;;;;;;5033156;28;20198;-81
2023/07/12 02:52:33;;;;;;;2.10;1.90;;;21.80;99.90;;;;;;5033959;28;20178;-81
2023/07/12 02:54:59;;;;;;;2.35;1.60;;;21.80;1.00;;;;;;5035765;28;20197;-81
2023/07/12 02:57:25;;;;;;;1.92;1.70;;;21.80;1.00;;;;;;5035157;28;20169;-81
2023/07/12 02:59:51;;;;;;;2.60;2.22;;;21.80;99.90;;;;;;5034776;28;20267;-81
2023/07/12 03:02:18;;;;;;;1.92;1.70;;;21.70;99.90;;;;;;5035268;28;20186;-80
2023/07/12 03:04:43;;;;;;;3.55;2.00;;;21.70;1.00;;;;;;5035341;28;20621;-81
2023/07/12 03:07:09;;;;;;;2.42;2.10;;;21.80;99.90;;;;;;5033741;28;20752;-81
2023/07/12 03:09:35;;;;;;;2.42;1.98;;;21.70;1.00;;;;;;5033975;28;20190;-81
2023/07/12 03:12:00;;;;;;;2.03;1.80;;;21.70;99.90;;;;;;5034147;28;20237;-81
2023/07/12 03:14:26;;;;;;;4.47;2.00;;;21.80;1.00;;;;;;5035975;28;20202;-82
2023/07/12 03:16:52;;;;;;;5.07;2.13;;;21.80;1.00;;;;;;5035016;28;20184;-81
2023/07/12 03:19:18;;;;;;;3.03;1.83;;;21.70;58.00;;;;;;5035410;28;20196;-81
2023/07/12 03:21:45;;;;;;;2.00;1.80;;;21.70;99.20;;;;;;5035102;28;20228;-81
2023/07/12 03:24:11;;;;;;;2.42;2.00;;;21.70;1.00;;;;;;5036173;28;20179;-81
2023/07/12 03:26:37;;;;;;;2.15;1.80;;;21.80;1.00;;;;;;5038249;28;20174;-82
2023/07/12 03:29:04;;;;;;;1.90;1.70;;;21.70;99.90;;;;;;5037982;28;20225;-81
2023/07/12 03:31:30;;;;;;;2.25;1.73;;;21.70;99.90;;;;;;5054109;28;20455;-81
2023/07/12 03:33:56;;;;;;;2.60;2.13;;;21.80;99.90;;;;;;5037860;28;20209;-81
2023/07/12 03:36:24;;;;;;;2.63;1.90;;;21.80;99.90;;;;;;5039618;28;20174;-81
2023/07/12 03:38:50;;;;;;;2.50;1.90;;;21.80;1.00;;;;;;5055318;28;20201;-81
2023/07/12 03:41:18;;;;;;;3.33;1.95;;;21.80;99.90;;;;;;5057144;28;20170;-81
2023/07/12 03:43:43;;;;;;;3.03;1.90;;;21.80;99.90;;;;;;5038914;28;20676;-81
2023/07/12 03:46:09;;;;;;;3.58;1.90;;;21.70;1.00;;;;;;5038417;28;20182;-81
2023/07/12 03:48:35;;;;;;;2.28;1.90;;;21.70;1.00;;;;;;5037072;28;20282;-81
2023/07/12 03:51:01;;;;;;;2.80;2.00;;;21.70;1.00;;;;;;5038821;28;20214;-81
2023/07/12 03:53:27;;;;;;;2.30;2.10;;;21.70;99.90;;;;;;5038820;28;20234;-81
2023/07/12 03:55:57;;;;;;;2.20;1.70;;;21.80;58.60;;;;;;5037340;28;20275;-81
2023/07/12 03:58:26;;;;;;;2.25;1.80;;;21.70;99.90;;;;;;5039278;28;20639;-81
2023/07/12 04:00:51;;;;;;;2.08;1.70;;;21.70;99.90;;;;;;5036785;28;20591;-81
2023/07/12 04:03:18;;;;;;;2.53;1.77;;;21.70;99.90;;;;;;5053951;28;20174;-82
2023/07/12 04:05:47;;;;;;;2.40;1.90;;;21.90;1.00;;;;;;5038772;28;20233;-82
2023/07/12 04:08:13;;;;;;;3.35;2.00;;;21.90;1.00;;;;;;5038090;28;20194;-82
2023/07/12 04:10:38;;;;;;;2.85;1.80;;;21.80;1.00;;;;;;5036297;28;20193;-82
2023/07/12 04:13:05;;;;;;;2.03;1.80;;;21.80;99.90;;;;;;5036936;28;20194;-81
2023/07/12 04:15:30;;;;;;;2.65;1.75;;;21.80;99.90;;;;;;5054021;28;20174;-81
2023/07/12 04:17:56;;;;;;;2.22;1.85;;;21.80;1.00;;;;;;5038658;28;20600;-81
2023/07/12 04:20:22;;;;;;;4.43;1.92;;;21.80;1.00;;;;;;5038229;28;20532;-81
2023/07/12 04:22:51;;;;;;;2.85;1.83;;;21.70;1.00;;;;;;5037706;28;20565;-82
2023/07/12 04:25:18;;;;;;;2.63;2.05;;;21.70;1.00;;;;;;5037561;28;20182;-81
2023/07/12 04:27:44;;;;;;;2.05;1.75;;;21.70;1.00;;;;;;5037212;28;20644;-82
2023/07/12 04:30:15;;;;;;;2.45;2.10;;;21.80;1.00;;;;;;5036945;28;20236;-81
2023/07/12 04:32:41;;;;;;;4.00;1.92;;;21.80;1.00;;;;;;5044850;28;20218;-82
2023/07/12 04:35:07;;;;;;;2.88;1.80;;;21.80;1.00;;;;;;5036610;28;20174;-81
2023/07/12 04:37:34;;;;;;;3.05;1.80;;;21.80;1.00;;;;;;5037760;28;20194;-82
2023/07/12 04:40:00;;;;;;;2.55;2.05;;;21.80;1.00;;;;;;5037254;28;20277;-81
2023/07/12 04:42:25;;;;;;;3.15;2.22;;;21.80;99.90;;;;;;5039011;28;20202;-82
2023/07/12 04:44:51;;;;;;;2.75;2.20;;;21.80;99.90;;;;;;5038299;28;20249;-81
2023/07/12 04:47:17;;;;;;;4.25;2.40;;;21.80;99.90;;;;;;5038018;28;20237;-81
2023/07/12 04:49:43;;;;;;;2.85;2.05;;;21.90;99.90;;;;;;5037244;28;20198;-82
2023/07/12 04:52:11;;;;;;;5.13;2.30;;;21.90;99.90;;;;;;5039428;28;20190;-82
2023/07/12 04:54:39;;;;;;;2.95;2.08;;;21.90;99.90;;;;;;5039372;28;20202;-82
2023/07/12 04:57:05;;;;;;;4.20;2.40;;;21.90;1.00;;;;;;5039713;28;20170;-85
2023/07/12 04:59:31;;;;;;;2.58;2.20;;;21.90;1.00;;;;;;5039716;28;20206;-84
2023/07/12 05:01:56;;;;;;;2.92;2.30;;;22.00;1.00;;;;;;5041233;28;20305;-83
2023/07/12 05:04:22;;;;;;;4.15;2.65;;;22.00;1.00;;;;;;5036017;28;20170;-86
2023/07/12 05:06:48;;;;;;;3.08;2.33;;;22.00;1.00;;;;;;5035515;28;20170;-83
2023/07/12 05:09:13;;;;;;;2.88;2.35;;;22.00;1.00;;;;;;5040811;28;20198;-85
2023/07/12 05:11:39;;;;;;;3.17;2.20;;;22.10;1.00;;;;;;5040570;28;20239;-86
2023/07/12 05:14:04;;;;;;;4.32;2.60;;;22.10;1.00;;;;;;5040742;28;20210;-85
2023/07/12 05:16:30;;;;;;;2.78;2.40;;;22.10;1.00;;;;;;5038937;28;20269;-83
2023/07/12 05:18:55;;;;;;;3.75;2.58;;;22.10;35.30;;;;;;5037452;28;20198;-82
2023/07/12 05:21:23;;;;;;;2.83;2.20;;;22.10;99.90;;;;;;5037028;28;20209;-83
2023/07/12 05:23:49;;;;;;;3.45;2.40;;;22.20;99.90;;;;;;5037667;28;20182;-84
2023/07/12 05:26:15;;;;;;;3.75;2.58;;;22.20;99.90;;;;;;5049847;28;20688;-83
2023/07/12 05:28:41;;;;;;;4.28;2.58;;;22.20;99.90;;;;;;5037991;28;20199;-82
2023/07/12 05:31:12;;;;;;;3.70;2.80;;;22.20;99.90;;;;;;5033578;28;20172;-82
2023/07/12 05:33:42;;;;;;;5.22;3.10;;;22.10;1.00;;;;;;5045604;28;20574;-86
2023/07/12 05:36:08;;;;;;;3.67;3.00;;;22.00;1.00;;;;;;5054862;28;20621;-83
2023/07/12 05:38:34;;;;;;;3.33;3.00;;;22.00;1.00;;;;;;5053390;28;20281;-84
2023/07/12 05:41:00;;;;;;;4.03;3.15;;;22.00;1.00;;;;;;5054579;28;20173;-85
2023/07/12 05:43:26;;;;;;;6.60;3.30;;;22.00;1.00;;;;;;5055042;28;20184;-84
2023/07/12 05:45:52;;;;;;;4.88;3.60;;;22.10;1.00;;;;;;5052013;28;20170;-88
2023/07/12 05:48:18;;;;;;;5.88;3.75;;;22.10;1.00;;;;;;5052567;28;20197;-87
2023/07/12 05:50:44;;;;;;;3.90;3.47;;;22.20;1.00;;;;;;5052071;28;20177;-90
2023/07/12 05:53:09;;;;;;;5.45;3.72;;;22.20;1.00;;;;;;5052178;28;20595;-87
2023/07/12 05:55:35;;;;;;;4.75;3.83;;;22.20;1.00;;;;;;5052955;28;20168;-81
2023/07/12 05:58:01;;;;;;;9.18;4.20;;;22.20;1.00;;;;;;5055170;28;20544;-88
2023/07/12 06:00:27;;;;;;;4.93;3.58;;;22.30;1.00;;;;;;5108905;22;20232;-78
2023/07/12 06:02:53;;;;;;;4.07;3.47;;;22.30;1.00;;;;;;5091542;28;20176;-79
2023/07/12 06:05:18;;;;;;;4.75;3.70;;;22.40;1.00;;;;;;5090491;28;20259;-79
2023/07/12 06:07:45;;;;;;;5.57;4.15;;;22.30;1.00;;;;;;5086850;28;20164;-79
2023/07/12 06:10:11;;;;;;;5.22;3.80;;;22.30;1.00;;;;;;5092469;28;20199;-78
2023/07/12 06:12:37;;;;;;;6.93;4.15;;;22.30;1.00;;;;;;5082979;28;20172;-79
2023/07/12 06:15:03;;;;;;;5.43;3.90;;;22.20;1.00;;;;;;5081260;28;20262;-78
2023/07/12 06:17:29;;;;;;;5.13;4.30;;;22.30;1.00;;;;;;5077598;28;20169;-79
2023/07/12 06:19:54;;;;;;;5.35;3.90;;;22.30;1.00;;;;;;5074765;28;20184;-79
2023/07/12 06:22:20;;;;;;;5.82;3.90;;;22.30;1.00;;;;;;5083307;28;20173;-83
2023/07/12 06:24:46;;;;;;;7.40;4.10;;;22.20;1.00;;;;;;5073396;28;20177;-82
2023/07/12 06:27:13;;;;;;;6.57;4.43;;;22.30;1.00;;;;;;5073114;28;20282;-82
2023/07/12 06:29:39;;;;;;;4.82;4.30;;;22.20;1.00;;;;;;5071374;28;20285;-82
2023/07/12 06:32:05;;;;;;;5.38;3.80;;;22.20;1.00;;;;;;5073299;28;20173;-82
2023/07/12 06:34:31;;;;;;;4.65;4.20;;;22.30;1.00;;;;;;5073041;28;20208;-83
2023/07/12 06:36:57;;;;;;;5.60;4.20;;;22.40;1.00;;;;;;5073143;28;20196;-82
2023/07/12 06:39:22;;;;;;;5.00;4.50;;;22.60;1.00;;;;;;5071687;28;20193;-81
2023/07/12 06:41:49;;;;;;;5.32;4.10;;;22.80;1.00;;;;;;5072122;28;20187;-80
2023/07/12 06:44:15;;;;;;;5.90;4.68;;;22.80;1.00;;;;;;5074528;28;20659;-81
2023/07/12 06:46:40;;;;;;;5.60;4.60;;;22.90;1.00;;;;;;5072326;28;20234;-82
2023/07/12 06:49:06;;;;;;;7.50;4.55;;;22.90;1.00;;;;;;5073787;28;20218;-79
2023/07/12 06:51:31;;;;;;;8.20;4.85;;;22.80;1.00;;;;;;5073109;28;20184;-80
2023/07/12 06:53:57;;;;;;;6.43;4.72;;;22.80;99.90;;;;;;5078938;28;20221;-83
2023/07/12 06:56:22;;;;;;;4.28;3.60;;;22.70;99.90;;;;;;5084853;28;20169;-80
2023/07/12 06:58:48;;;;;;;3.22;2.92;;;22.50;1.00;;;;;;5084612;28;20227;-80
2023/07/12 07:01:13;;;;;;;2.90;2.70;;;22.40;1.00;;;;;;5089504;28;20180;-80
2023/07/12 07:03:39;;;;;;;3.00;2.70;;;22.40;1.00;;;;;;5080064;28;20223;-80
2023/07/12 07:06:05;;;;;;;3.00;2.70;;;22.30;99.90;;;;;;5080090;28;20179;-81
2023/07/12 07:08:31;;;;;;;2.50;2.30;;;22.40;99.90;;;;;;5072872;28;20666;-81
2023/07/12 07:10:57;;;;;;;2.40;2.20;;;22.40;70.50;;;;;;5071060;28;20184;-80
2023/07/12 07:13:24;;;;;;;4.28;2.22;;;22.40;99.90;;;;;;5072464;28;20219;-80
2023/07/12 07:15:50;;;;;;;2.75;2.38;;;22.30;1.00;;;;;;5071618;28;20173;-81
2023/07/12 07:18:16;;;;;;;3.70;2.33;;;22.40;99.90;;;;;;5073485;28;20548;-81
2023/07/12 07:20:43;;;;;;;2.30;2.10;;;22.40;1.00;;;;;;5082647;28;20188;-82
2023/07/12 07:23:10;;;;;;;2.83;2.33;;;22.50;1.00;;;;;;5092000;28;20177;-81
2023/07/12 07:25:36;;;;;;;2.22;2.03;;;22.60;99.90;;;;;;5091639;28;20180;-80
2023/07/12 07:28:02;;;;;;;2.70;2.35;;;22.70;1.00;;;;;;5091850;28;20560;-80
2023/07/12 07:30:28;;;;;;;2.40;2.17;;;22.80;1.00;;;;;;5088331;28;20196;-80
2023/07/12 07:32:54;;;;;;;3.15;2.20;;;22.90;99.90;;;;;;5073139;28;20197;-81
2023/07/12 07:35:20;;;;;;;2.58;2.17;;;23.10;1.00;;;;;;5072389;28;20205;-80
2023/07/12 07:37:49;;;;;;;3.78;2.33;;;23.10;1.00;;;;;;5072110;28;20201;-80
2023/07/12 07:40:14;;;;;;;2.58;2.22;;;23.00;99.90;;;;;;5071040;28;20217;-80
2023/07/12 07:42:41;;;;;;;2.85;2.58;;;22.90;99.90;;;;;;5080015;28;20215;-80
2023/07/12 07:45:09;;;;;;;3.03;2.50;;;22.90;99.90;;;;;;5087881;28;20168;-80
2023/07/12 07:47:35;;;;;;;2.80;2.50;;;22.90;99.90;;;;;;5092862;28;20157;-80
2023/07/12 07:50:01;;;;;;;2.60;2.40;;;22.80;99.90;;;;;;5089874;28;20192;-80
2023/07/12 07:52:26;;;;;;;2.70;2.50;;;22.70;1.00;;;;;;5083605;28;20222;-80
2023/07/12 07:54:52;;;;;;;3.33;2.60;;;22.60;1.00;;;;;;5093125;28;20204;-80
2023/07/12 07:57:17;;;;;;;3.50;2.50;;;22.80;1.00;;;;;;5092965;28;20198;-81
2023/07/12 07:59:43;;;;;;;2.95;2.65;;;22.90;99.90;;;;;;5090929;28;20211;-80
2023/07/12 08:02:11;;;;;;;3.65;2.70;;;22.80;99.90;;;;;;5093168;28;20179;-80
2023/07/12 08:04:37;;;;;;;2.83;2.60;;;22.90;1.00;;;;;;5093375;28;20200;-80
2023/07/12 08:07:05;;;;;;;3.45;2.70;;;23.10;1.00;;;;;;5093305;28;20226;-81
2023/07/12 08:09:30;;;;;;;3.63;2.80;;;23.20;99.90;;;;;;5093812;28;20207;-80
2023/07/12 08:11:56;;;;;;;3.10;2.80;;;23.50;1.00;;;;;;5095753;28;20172;-82
2023/07/12 08:14:22;;;;;;;3.47;2.88;;;23.60;1.00;;;;;;5096303;28;20199;-81
2023/07/12 08:16:48;;;;;;;3.65;2.40;;;23.60;99.90;;;;;;5095023;28;20173;-81
2023/07/12 08:19:15;;;;;;;2.90;2.58;;;23.70;1.00;;;;;;5096109;28;20188;-81
2023/07/12 08:21:40;;;;;;;2.83;2.30;;;23.90;1.00;;;;;;5095543;28;20255;-83
2023/07/12 08:24:06;;;;;;;3.20;2.30;;;23.90;1.00;;;;;;5095271;28;20195;-80
2023/07/12 08:26:31;;;;;;;2.80;2.25;;;24.00;99.90;;;;;;5095221;28;20729;-78
2023/07/12 08:28:57;;;;;;;2.90;2.22;;;24.10;99.90;;;;;;5093887;28;20192;-81
2023/07/12 08:31:23;;;;;;;2.30;2.10;;;24.20;99.90;;;;;;5093296;28;20173;-83
2023/07/12 08:33:49;;;;;;;2.17;1.98;;;24.40;1.00;;;;;;5095372;28;20726;-80
2023/07/12 08:36:16;;;;;;;3.08;2.30;;;24.40;1.00;;;;;;5095426;28;20160;-81
2023/07/12 08:38:42;;;;;;;2.70;2.20;;;24.50;1.00;;;;;;5093943;28;20200;-81
2023/07/12 08:41:16;;;;;;;3.08;2.20;;;24.70;1.00;;;;;;5093755;28;20168;-81
2023/07/12 08:43:43;;;;;;;3.47;2.55;;;24.50;1.00;;;;;;5093969;28;20613;-84
2023/07/12 08:46:15;;;;;;;2.55;2.30;;;24.50;1.00;;;;;;5095352;28;20179;-80
2023/07/12 08:48:41;;;;;;;3.08;2.15;;;24.40;1.00;;;;;;5095549;28;20167;-80
2023/07/12 08:51:35;;;;;;;3.67;2.30;;;24.70;99.90;;;;;;5093350;28;20173;-81
2023/07/12 08:54:00;;;;;;;2.40;2.20;;;24.80;1.00;;;;;;5093657;28;20191;-81
2023/07/12 08:56:26;;;;;;;2.70;2.30;;;25.00;99.90;;;;;;5093726;28;20172;-81
2023/07/12 08:58:53;;;;;;;2.92;2.30;;;25.20;99.90;;;;;;5094813;28;20682;-82
2023/07/12 09:01:38;;;;;;;3.08;2.30;;;25.30;99.90;;;;;;5093523;28;20536;-81
2023/07/12 09:04:23;;;;;;;3.30;2.05;;;25.50;99.90;;;;;;5093532;28;20167;-81
2023/07/12 09:06:54;;;;;;;2.03;1.92;;;25.60;99.90;;;;;;5095031;28;20198;-81
2023/07/12 09:09:20;;;;;;;2.20;2.00;;;25.50;99.90;;;;;;5094904;28;20674;-82
2023/07/12 09:11:46;;;;;;;2.20;2.00;;;25.60;69.40;;;;;;5093235;28;20286;-81
2023/07/12 09:14:18;;;;;;;2.97;1.92;;;25.50;79.20;;;;;;5093964;28;20249;-82
2023/07/12 09:17:21;;;;;;;2.78;2.10;;;25.30;49.20;;;;;;5074573;28;20176;-82
2023/07/12 09:19:47;;;;;;;2.55;2.00;;;25.50;56.70;;;;;;5072728;28;20200;-77
2023/07/12 09:22:18;;;;;;;2.67;1.90;;;25.50;67.90;;;;;;5074535;28;20181;-78
2023/07/12 09:24:55;;;;;;;1.98;1.75;;;25.60;1.00;;;;;;5074505;28;20688;-78
2023/07/12 09:27:25;;;;;;;2.00;1.80;;;25.30;1.00;;;;;;5073120;28;20183;-77
2023/07/12 09:30:04;;;;;;;2.00;1.52;;;25.20;69.20;;;;;;5073981;28;20189;-77
2023/07/12 09:32:33;;;;;;;3.30;1.80;;;25.20;1.00;;;;;;5074274;28;20252;-77
2023/07/12 09:35:04;;;;;;;3.33;1.80;;;25.40;37.30;;;;;;5074391;28;20196;-77
2023/07/12 09:37:35;;;;;;;1.70;1.60;;;25.50;1.00;;;;;;5073187;28;20160;-77
2023/07/12 09:40:02;;;;;;;2.67;1.55;;;25.70;99.90;;;;;;5074120;28;20292;-77
2023/07/12 09:42:30;;;;;;;3.58;1.83;;;25.50;1.00;;;;;;5073152;28;20204;-77
2023/07/12 09:44:58;;;;;;;1.52;1.38;;;25.70;1.00;;;;;;5073103;28;20259;-77
2023/07/12 09:47:26;;;;;;;1.50;1.40;;;26.00;1.00;;;;;;5054074;28;20182;-77
2023/07/12 09:50:02;;;;;;;1.42;1.33;;;26.20;1.00;;;;;;5053848;28;20229;-77
2023/07/12 09:52:32;;;;;;;1.85;1.40;;;26.40;1.00;;;;;;5054341;28;20157;-77
2023/07/12 09:55:14;;;;;;;2.20;1.20;;;26.20;1.00;;;;;;5054158;28;20655;-77
2023/07/12 09:57:56;;;;;;;1.65;1.20;;;26.20;1.00;;;;;;5052800;28;20176;-73
2023/07/12 10:00:37;;;;;;;3.30;1.40;;;26.20;1.00;;;;;;5052629;28;20209;-77
2023/07/12 10:03:19;;;;;;;1.52;1.40;;;26.20;1.00;;;;;;5054191;28;20165;-77
2023/07/12 10:05:52;;;;;;;2.63;1.38;;;26.50;1.00;;;;;;5053988;28;20162;-78
2023/07/12 10:08:19;;;;;;;1.95;1.38;;;26.80;1.00;;;;;;5052772;28;20177;-77
2023/07/12 10:11:10;;;;;;;2.00;1.38;;;26.90;1.00;;;;;;5051828;28;20204;-78
2023/07/12 10:13:43;;;;;;;2.22;1.55;;;26.80;99.90;;;;;;5052257;28;20208;-78
2023/07/12 10:16:17;;;;;;;1.45;1.30;;;26.70;99.90;;;;;;5052272;28;20180;-78
2023/07/12 10:18:43;;;;;;;1.52;1.15;;;26.80;99.90;;;;;;5053513;28;20201;-78
2023/07/12 10:21:15;;;;;;;1.40;1.30;;;26.90;99.90;;;;;;5051360;28;20716;-78
2023/07/12 10:23:53;;;;;;;2.10;1.35;;;26.70;99.90;;;;;;5052195;28;20177;-78
2023/07/12 10:26:19;;;;;;;1.83;1.30;;;26.70;99.90;;;;;;5053470;28;20158;-78
2023/07/12 10:28:51;;;;;;;1.90;1.20;;;26.70;99.90;;;;;;5053246;28;20736;-78
2023/07/12 10:31:23;;;;;;;2.40;1.30;;;27.00;99.90;;;;;;5052693;28;20177;-78
2023/07/12 10:33:53;;;;;;;2.00;1.30;;;27.40;99.90;;;;;;5054304;28;20200;-77
2023/07/12 10:36:24;;;;;;;3.33;1.20;;;27.70;99.90;;;;;;5054851;28;20169;-77
2023/07/12 10:38:51;;;;;;;1.20;1.10;;;27.80;99.90;;;;;;5051653;28;20197;-79
2023/07/12 10:41:32;;;;;;;1.40;1.20;;;27.50;99.90;;;;;;5050991;28;20289;-79
2023/07/12 10:44:08;;;;;;;4.38;2.15;;;27.40;99.90;;;;;;5051797;28;20546;-78
2023/07/12 10:46:37;;;;;;;2.95;1.67;;;27.50;99.90;;;;;;5052266;28;20180;-83
2023/07/12 10:49:11;;;;;;;1.33;1.23;;;27.30;99.90;;;;;;5053651;28;20193;-81
2023/07/12 10:51:40;;;;;;;2.00;1.33;;;27.50;99.90;;;;;;5051774;28;20175;-79
2023/07/12 10:54:29;;;;;;;1.52;1.40;;;27.60;99.90;;;;;;5051479;28;20625;-80
2023/07/12 10:57:01;;;;;;;1.42;1.33;;;28.10;99.90;;;;;;5051455;28;20636;-79
2023/07/12 10:59:32;;;;;;;2.47;1.30;;;28.30;99.90;;;;;;5035176;28;20209;-81
2023/07/12 11:02:04;;;;;;;1.55;1.35;;;28.30;99.90;;;;;;5051865;28;20170;-79
2023/07/12 11:04:29;;;;;;;2.90;1.60;;;28.50;99.90;;;;;;5053187;28;20181;-80
2023/07/12 11:07:07;;;;;;;2.28;1.42;;;28.90;99.90;;;;;;5051744;28;20710;-80
2023/07/12 11:09:47;;;;;;;1.35;1.13;;;28.80;99.90;;;;;;5051875;28;20185;-79
2023/07/12 11:12:14;;;;;;;1.95;1.50;;;28.60;99.90;;;;;;5051660;28;20181;-80
2023/07/12 11:14:41;;;;;;;1.35;1.10;;;28.80;99.90;;;;;;5060554;28;20199;-80
2023/07/12 11:17:06;;;;;;;1.77;1.40;;;28.80;99.90;;;;;;5073041;28;20173;-79
2023/07/12 11:19:42;;;;;;;1.30;1.10;;;28.90;99.90;;;;;;5075765;28;20226;-80
2023/07/12 11:22:44;;;;;;;1.63;1.10;;;28.90;99.90;;;;;;5094212;28;20167;-82
2023/07/12 11:25:31;;;;;;;1.33;1.23;;;28.80;99.90;;;;;;5091368;28;20167;-77
2023/07/12 11:28:01;;;;;;;1.60;1.25;;;28.40;99.90;;;;;;5092266;28;20164;-77
2023/07/12 11:30:27;;;;;;;2.45;1.45;;;28.40;99.90;;;;;;5091719;28;20193;-77
2023/07/12 11:33:19;;;;;;;1.45;1.30;;;28.00;99.90;;;;;;5092621;28;20168;-77
2023/07/12 11:35:47;;;;;;;2.60;1.17;;;28.20;99.90;;;;;;5092739;28;20153;-77
2023/07/12 11:38:24;;;;;;;1.63;1.20;;;27.70;99.90;;;;;;5092199;28;20184;-77
2023/07/12 11:40:55;;;;;;;2.08;1.30;;;27.80;99.90;;;;;;5091936;28;20559;-76
2023/07/12 11:43:24;;;;;;;1.25;1.08;;;28.30;99.90;;;;;;5092610;28;20230;-78
2023/07/12 11:45:55;;;;;;;1.13;1.02;;;28.70;99.90;;;;;;5094966;28;20180;-78
2023/07/12 11:48:22;;;;;;;2.63;1.20;;;28.90;99.90;;;;;;5096110;28;20168;-79
2023/07/12 11:50:52;;;;;;;1.98;1.10;;;29.20;99.90;;;;;;5095743;28;20570;-77
2023/07/12 11:53:19;;;;;;;2.28;1.35;;;29.20;99.90;;;;;;5095346;28;20223;-76
2023/07/12 11:55:47;;;;;;;1.85;1.30;;;28.80;99.90;;;;;;5095821;28;20225;-77
2023/07/12 11:58:21;;;;;;;2.28;1.45;;;28.50;99.90;;;;;;5094594;28;20168;-76
2023/07/12 12:00:49;;;;;;;1.73;1.27;;;27.90;99.90;;;;;;5096477;28;20226;-77
2023/07/12 12:03:15;;;;;;;1.63;1.30;;;27.90;99.90;;;;;;5089274;28;20176;-77
2023/07/12 12:05:44;;;;;;;1.90;1.50;;;27.90;99.90;;;;;;5075694;28;20581;-77
2023/07/12 12:08:24;;;;;;;1.88;1.20;;;27.40;99.90;;;;;;5075377;28;20165;-77
2023/07/12 12:10:50;;;;;;;1.98;1.20;;;27.50;99.90;;;;;;5073823;28;20553;-78
2023/07/12 12:13:19;;;;;;;2.30;1.33;;;28.00;99.90;;;;;;5074329;28;20189;-77
2023/07/12 12:15:56;;;;;;;1.48;1.27;;;28.50;99.90;;;;;;5075434;28;20180;-77
2023/07/12 12:18:22;;;;;;;4.45;1.42;;;28.60;99.90;;;;;;5075545;28;20184;-77
2023/07/12 12:21:03;;;;;;;1.90;1.40;;;28.50;99.90;;;;;;5072887;28;20200;-74
2023/07/12 12:23:41;;;;;;;2.22;1.33;;;28.50;99.90;;;;;;5055241;28;20572;-77
2023/07/12 12:26:24;;;;;;;1.33;1.15;;;28.90;99.90;;;;;;5053947;28;20183;-76
2023/07/12 12:29:00;;;;;;;1.40;1.02;;;29.20;99.90;;;;;;5053940;28;20554;-76
2023/07/12 12:31:28;;;;;;;1.63;1.20;;;28.90;99.90;;;;;;5053096;28;20173;-76
2023/07/12 12:34:05;;;;;;;1.30;1.10;;;28.40;99.90;;;;;;5055070;28;20198;-76
2023/07/12 12:36:33;;;;;;;1.48;1.38;;;28.00;99.90;;;;;;5053648;28;20256;-76
2023/07/12 12:39:09;;;;;;;1.77;1.10;;;28.40;99.90;;;;;;5054937;28;20197;-75
2023/07/12 12:41:39;;;;;;;1.35;1.20;;;28.30;99.90;;;;;;5054475;28;20162;-77
2023/07/12 12:44:17;;;;;;;1.60;1.27;;;28.70;99.90;;;;;;5053854;28;20173;-77
2023/07/12 12:46:44;;;;;;;1.75;1.17;;;29.10;99.90;;;;;;5055013;28;20197;-78
2023/07/12 12:49:17;;;;;;;1.20;1.10;;;29.40;99.90;;;;;;5053764;28;20186;-77
2023/07/12 12:51:43;;;;;;;1.75;1.30;;;29.60;99.90;;;;;;5054335;28;20169;-78
2023/07/12 12:54:09;;;;;;;1.67;1.30;;;29.60;99.90;;;;;;5053053;28;20189;-78
2023/07/12 12:56:35;;;;;;;3.17;1.30;;;29.70;99.90;;;;;;5053976;28;20679;-78
2023/07/12 12:59:03;;;;;;;1.67;1.30;;;29.70;99.90;;;;;;5053325;28;20275;-78